Terminal Aerodrome Forecast
Issued by NWS

Home | Current Version | Previous Version | Text Only | Print | Product List | Glossary On
Versions: 1 2 3 4 5 6 7 8 9 10 11 12 13 14 15 16 17 18 19 20 21 22 23 24 25 26 27 28 29 30
000
FTUS41 KBUF 281500 AAB
TAFJHW
TAF AMD
KJHW 281558Z 2816/2912 36011KT P6SM -SHRA OVC013
     FM282100 33013KT P6SM OVC020
     FM290100 32011KT P6SM OVC035
     FM290600 31008KT P6SM BKN025
      AMD LTD TO CLD VIS AND WIND=

USA.gov is the U.S. government's official web portal to all federal, state and local government web resources and services.